Time;durP1;ratioP1;P1;durP2;ratioP2;P2;SDS_P1;SDS_P2;PMS_P1;PMS_P2;Temp;Humidity;BMP_temperature;BMP_pressure;BME280_temperature;BME280_humidity;BME280_pressure;Samples;Min_cycle;Max_cycle;Signal;HPM_P1;HPM_P2
2023/07/15 00:02:19;;;;;;;5.45;1.40;;;;;;;22.22;61.19;99632.88;8322714;28;20072;-66
2023/07/15 00:06:21;;;;;;;3.33;1.55;;;;;;;22.28;61.05;99623.69;8330766;28;20042;-67
2023/07/15 00:10:22;;;;;;;3.38;1.67;;;;;;;22.23;61.48;99631.81;8323276;28;20443;-66
2023/07/15 00:14:23;;;;;;;4.53;1.48;;;;;;;22.25;61.61;99626.91;8322775;28;20091;-66
2023/07/15 00:18:25;;;;;;;5.80;1.75;;;;;;;22.28;61.87;99628.34;8322940;28;20063;-66
2023/07/15 00:22:25;;;;;;;2.58;1.23;;;;;;;22.40;61.73;99621.78;8322539;28;20065;-67
2023/07/15 00:26:29;;;;;;;2.65;1.48;;;;;;;22.51;61.24;99617.38;8321680;28;20044;-66
2023/07/15 00:30:31;;;;;;;2.65;1.92;;;;;;;22.99;59.67;99610.50;8322516;28;20052;-66
2023/07/15 00:34:32;;;;;;;3.30;1.48;;;;;;;23.40;58.47;99608.63;8313323;28;20570;-67
2023/07/15 00:38:34;;;;;;;4.70;1.85;;;;;;;23.63;57.73;99606.59;8322958;28;20056;-66
2023/07/15 00:43:16;;;;;;;2.05;1.40;;;;;;;23.74;57.45;99607.63;8322258;28;20041;-67
2023/07/15 00:47:27;;;;;;;2.28;1.50;;;;;;;23.78;57.40;99608.84;8309752;28;20403;-66
2023/07/15 00:51:30;;;;;;;9.40;1.42;;;;;;;23.74;57.54;99605.72;8319417;28;20053;-66
2023/07/15 00:55:31;;;;;;;5.10;1.27;;;;;;;23.69;57.34;99604.78;8322284;28;20128;-67
2023/07/15 00:59:32;;;;;;;2.88;1.20;;;;;;;23.55;57.75;99608.94;8322610;28;20511;-66
2023/07/15 01:03:33;;;;;;;2.25;1.00;;;;;;;23.54;57.78;99612.78;8319899;28;20071;-67
2023/07/15 01:07:33;;;;;;;2.67;1.30;;;;;;;23.48;57.69;99608.25;8320157;28;20038;-66
2023/07/15 01:11:39;;;;;;;5.95;1.30;;;;;;;23.46;57.68;99608.50;8319511;28;20045;-64
2023/07/15 01:15:39;;;;;;;3.75;1.50;;;;;;;23.50;57.64;99592.25;8319755;28;20135;-66
2023/07/15 01:19:40;;;;;;;2.75;1.38;;;;;;;23.43;57.95;99600.72;8320084;28;20045;-66
2023/07/15 01:23:40;;;;;;;4.40;1.52;;;;;;;23.26;58.35;99599.78;8319729;28;20067;-66
2023/07/15 01:27:40;;;;;;;2.10;1.20;;;;;;;23.29;58.42;99596.53;8325405;28;20108;-66
2023/07/15 01:31:42;;;;;;;2.83;1.52;;;;;;;23.29;58.34;99593.78;8326048;28;20052;-67
2023/07/15 01:35:47;;;;;;;2.42;1.15;;;;;;;23.32;58.41;99598.00;8325511;28;20507;-66
2023/07/15 01:39:49;;;;;;;1.77;1.10;;;;;;;23.33;58.40;99596.91;8324442;28;20116;-67
2023/07/15 01:43:50;;;;;;;3.03;1.50;;;;;;;23.28;58.44;99596.78;8324467;28;20041;-67
2023/07/15 01:47:50;;;;;;;2.42;1.10;;;;;;;23.34;58.27;99584.78;8325170;28;20348;-67
2023/07/15 01:51:51;;;;;;;2.53;1.50;;;;;;;23.37;58.10;99578.75;8315914;28;20410;-66
2023/07/15 01:55:51;;;;;;;4.40;1.40;;;;;;;23.36;57.93;99579.84;8324706;28;20054;-67
2023/07/15 01:59:57;;;;;;;2.08;1.17;;;;;;;23.41;57.77;99580.78;8325419;28;20049;-67
2023/07/15 02:03:58;;;;;;;2.33;1.20;;;;;;;23.34;57.97;99573.75;8324395;28;20041;-66
2023/07/15 02:07:58;;;;;;;3.42;1.33;;;;;;;23.40;57.41;99572.75;8323575;28;20054;-66
2023/07/15 02:11:59;;;;;;;5.10;1.35;;;;;;;23.40;57.54;99567.25;8322714;28;20395;-67
2023/07/15 02:15:59;;;;;;;2.63;1.10;;;;;;;23.33;57.23;99567.41;8315332;28;20049;-67
2023/07/15 02:20:00;;;;;;;3.15;1.25;;;;;;;23.33;57.91;99566.56;8324029;28;20044;-67
2023/07/15 02:24:01;;;;;;;6.53;1.20;;;;;;;23.29;57.68;99576.41;8314435;28;20510;-67
2023/07/15 02:28:02;;;;;;;1.75;1.55;;;;;;;23.17;57.76;99563.47;8323760;28;20129;-66
2023/07/15 02:32:05;;;;;;;1.92;1.13;;;;;;;23.16;57.76;99566.47;8323674;28;20132;-67
2023/07/15 02:36:05;;;;;;;2.65;0.90;;;;;;;23.14;58.14;99569.47;8323733;28;20064;-66
2023/07/15 02:40:08;;;;;;;2.40;1.45;;;;;;;23.09;57.95;99574.88;8323744;28;20038;-67
2023/07/15 02:44:08;;;;;;;4.88;1.38;;;;;;;23.05;58.11;99565.41;8288434;28;20037;-66
2023/07/15 02:48:09;;;;;;;2.42;1.48;;;;;;;23.01;58.02;99569.75;8323480;28;20041;-66
2023/07/15 02:52:09;;;;;;;3.22;1.35;;;;;;;22.95;58.22;99570.72;8322230;28;20037;-66
2023/07/15 02:56:10;;;;;;;4.05;1.30;;;;;;;22.88;58.72;99564.47;8321207;28;20044;-63
2023/07/15 03:00:13;;;;;;;1.65;1.20;;;;;;;22.75;58.87;99562.00;8321795;28;20176;-64
2023/07/15 03:04:14;;;;;;;3.70;1.30;;;;;;;22.69;59.14;99576.75;8322179;28;20033;-65
2023/07/15 03:08:14;;;;;;;4.70;1.65;;;;;;;22.48;59.83;99580.06;8313620;28;20034;-65
2023/07/15 03:12:15;;;;;;;2.28;1.35;;;;;;;22.38;59.99;99582.59;8322058;28;20045;-65
2023/07/15 03:16:16;;;;;;;2.88;1.30;;;;;;;22.34;60.34;99578.66;8322593;28;20064;-65
2023/07/15 03:20:20;;;;;;;3.00;1.40;;;;;;;22.41;60.01;99579.38;8322681;28;20550;-65
2023/07/15 03:24:25;;;;;;;2.33;1.05;;;;;;;22.37;60.11;99577.34;8313058;28;20041;-65
2023/07/15 03:28:25;;;;;;;3.15;1.23;;;;;;;22.23;60.48;99582.22;8322348;28;20056;-65
2023/07/15 03:32:26;;;;;;;1.42;1.13;;;;;;;22.07;61.09;99577.44;8321738;28;20120;-65
2023/07/15 03:36:26;;;;;;;4.72;1.20;;;;;;;21.95;61.62;99584.84;8321933;28;20121;-65
2023/07/15 03:40:30;;;;;;;2.05;1.13;;;;;;;21.82;62.07;99581.44;8322075;28;20041;-65
2023/07/15 03:44:33;;;;;;;4.32;1.10;;;;;;;21.38;63.62;99571.72;8321636;28;20041;-65
2023/07/15 03:48:33;;;;;;;3.05;1.52;;;;;;;21.12;65.26;99581.16;8321002;28;20039;-66
2023/07/15 03:52:34;;;;;;;2.92;1.73;;;;;;;20.67;67.88;99573.44;8321513;28;20048;-65
2023/07/15 03:56:34;;;;;;;3.58;1.48;;;;;;;20.35;69.38;99574.63;8321243;28;20099;-64
2023/07/15 04:00:34;;;;;;;3.67;1.55;;;;;;;20.41;68.61;99565.47;8321468;28;20046;-64
2023/07/15 04:04:35;;;;;;;4.63;1.67;;;;;;;20.60;68.11;99562.53;8321009;28;20072;-64
2023/07/15 04:08:35;;;;;;;2.67;1.27;;;;;;;20.78;67.24;99561.69;8321278;28;20049;-64
2023/07/15 04:12:36;;;;;;;3.40;1.70;;;;;;;20.98;66.30;99560.41;8319508;28;20400;-64
2023/07/15 04:16:36;;;;;;;2.45;1.52;;;;;;;21.11;66.15;99562.16;8320059;28;20123;-65
2023/07/15 04:20:37;;;;;;;3.85;1.23;;;;;;;20.92;67.45;99554.97;8320766;28;20258;-64
2023/07/15 04:24:37;;;;;;;2.20;1.15;;;;;;;20.83;67.74;99556.34;8320986;28;20038;-64
2023/07/15 04:28:38;;;;;;;4.82;1.30;;;;;;;21.00;67.05;99571.16;8319001;28;20065;-65
2023/07/15 04:32:39;;;;;;;3.60;1.48;;;;;;;21.15;66.34;99583.47;8320370;28;20045;-64
2023/07/15 04:36:39;;;;;;;2.88;1.42;;;;;;;21.29;66.24;99595.13;8319986;28;20045;-64
2023/07/15 04:40:40;;;;;;;3.13;1.50;;;;;;;21.44;65.86;99586.44;8320323;28;20045;-64
2023/07/15 04:44:40;;;;;;;4.78;1.55;;;;;;;21.60;65.29;99581.13;8319762;28;20288;-64
2023/07/15 04:48:41;;;;;;;3.70;1.85;;;;;;;21.78;64.78;99583.84;8316901;28;20132;-64
2023/07/15 04:52:41;;;;;;;2.38;1.50;;;;;;;21.85;65.20;99590.09;8320131;28;20136;-65
2023/07/15 04:56:42;;;;;;;8.23;1.40;;;;;;;22.06;64.33;99597.78;8320398;28;20052;-64
2023/07/15 05:00:42;;;;;;;2.42;1.20;;;;;;;22.22;64.19;99591.59;8315935;28;20071;-64
2023/07/15 05:04:43;;;;;;;4.35;1.52;;;;;;;22.40;63.80;99594.22;8321183;28;20131;-64
2023/07/15 05:08:43;;;;;;;3.30;1.50;;;;;;;22.49;64.81;99581.78;8326127;28;20114;-65
2023/07/15 05:12:45;;;;;;;2.30;1.38;;;;;;;22.60;64.94;99586.44;8326067;28;20553;-64
2023/07/15 05:16:45;;;;;;;1.90;1.08;;;;;;;22.74;65.41;99570.50;8325230;28;20045;-65
2023/07/15 05:20:46;;;;;;;2.58;0.80;;;;;;;23.11;65.06;99572.72;8328592;28;20288;-64
2023/07/15 05:24:48;;;;;;;2.22;1.20;;;;;;;23.49;63.69;99571.28;8323666;28;20041;-65
2023/07/15 05:28:48;;;;;;;2.22;1.50;;;;;;;23.84;63.40;99566.41;8325671;28;20521;-64
2023/07/15 05:32:49;;;;;;;6.38;1.63;;;;;;;24.12;62.54;99574.69;8325574;28;20041;-64
2023/07/15 05:36:50;;;;;;;3.65;1.35;;;;;;;24.41;62.04;99570.72;8325970;28;20410;-64
2023/07/15 05:40:52;;;;;;;5.43;1.60;;;;;;;24.76;61.73;99571.25;8325698;28;20111;-65
2023/07/15 05:44:52;;;;;;;4.57;1.27;;;;;;;25.16;61.15;99574.59;8323055;28;20048;-64
2023/07/15 05:48:53;;;;;;;7.03;1.33;;;;;;;25.56;57.99;99580.63;8325400;28;20133;-65
2023/07/15 05:52:53;;;;;;;2.05;1.10;;;;;;;25.98;56.08;99578.84;8324545;28;20426;-65
2023/07/15 05:56:54;;;;;;;3.35;1.30;;;;;;;26.34;55.36;99577.22;8325211;28;20045;-65
2023/07/15 06:00:54;;;;;;;2.08;1.02;;;;;;;26.71;54.60;99584.44;8324316;28;20037;-65
2023/07/15 06:04:55;;;;;;;2.65;1.10;;;;;;;27.01;54.14;99585.75;8324417;28;20053;-65
2023/07/15 06:08:55;;;;;;;4.90;1.35;;;;;;;27.14;53.53;99585.25;8324452;28;20045;-65
2023/07/15 06:12:56;;;;;;;1.43;0.90;;;;;;;27.05;52.98;99596.03;8318202;28;20046;-65
2023/07/15 06:16:56;;;;;;;3.35;0.95;;;;;;;27.00;53.64;99592.38;8319980;28;20284;-64
2023/07/15 06:20:57;;;;;;;2.30;1.20;;;;;;;27.01;53.94;99589.34;8322470;28;21185;-65
2023/07/15 06:24:57;;;;;;;3.03;1.13;;;;;;;26.81;54.43;99584.50;8306318;28;20466;-65
2023/07/15 06:29:00;;;;;;;2.15;1.10;;;;;;;26.91;54.26;99588.44;8322972;28;20045;-65
2023/07/15 06:33:00;;;;;;;3.75;1.10;;;;;;;26.88;54.46;99594.53;8318836;28;20037;-65
2023/07/15 06:37:01;;;;;;;2.30;1.23;;;;;;;26.64;55.01;99594.94;8322785;28;20045;-65
2023/07/15 06:41:01;;;;;;;1.73;1.40;;;;;;;26.64;55.18;99589.41;8322957;28;20042;-65
2023/07/15 06:45:02;;;;;;;3.22;1.13;;;;;;;26.69;55.21;99596.94;8322108;28;20045;-65
2023/07/15 06:49:03;;;;;;;5.38;1.00;;;;;;;26.54;55.64;99589.31;8322185;28;20560;-65
2023/07/15 06:53:03;;;;;;;1.95;1.30;;;;;;;26.54;55.69;99600.41;8320768;28;20057;-65
2023/07/15 06:57:04;;;;;;;2.33;1.20;;;;;;;26.37;56.40;99585.84;8319878;28;20052;-65
2023/07/15 07:01:04;;;;;;;3.58;1.50;;;;;;;26.32;56.96;99574.72;8319656;28;20055;-65
2023/07/15 07:05:05;;;;;;;2.17;1.38;;;;;;;26.30;56.62;99599.09;8321633;28;20052;-65
2023/07/15 07:09:06;;;;;;;4.13;1.20;;;;;;;26.20;57.42;99593.44;8321614;28;20053;-65
2023/07/15 07:13:07;;;;;;;3.83;1.42;;;;;;;26.08;58.39;99589.19;8321626;28;20042;-65
2023/07/15 07:17:07;;;;;;;3.17;1.27;;;;;;;26.12;58.35;99602.28;8320100;28;20511;-65
2023/07/15 07:21:07;;;;;;;7.10;1.40;;;;;;;26.05;58.76;99585.03;8316164;28;20495;-65
2023/07/15 07:25:08;;;;;;;1.80;1.10;;;;;;;25.95;60.13;99590.44;8318818;28;20296;-65
2023/07/15 07:29:09;;;;;;;3.63;1.40;;;;;;;25.99;60.48;99608.25;8319309;28;20555;-65
2023/07/15 07:33:09;;;;;;;2.63;1.00;;;;;;;26.00;60.94;99615.44;8314755;28;20041;-65
2023/07/15 07:37:10;;;;;;;2.60;1.27;;;;;;;26.13;60.11;99609.47;8321103;28;20037;-65
2023/07/15 07:41:11;;;;;;;1.75;1.15;;;;;;;26.22;60.66;99599.56;8321396;28;20053;-65
2023/07/15 07:45:14;;;;;;;3.50;1.00;;;;;;;26.34;60.75;99633.50;8321086;28;20067;-65
2023/07/15 07:49:15;;;;;;;2.05;0.90;;;;;;;26.51;62.13;99648.06;8317513;28;20133;-65
2023/07/15 07:53:15;;;;;;;2.67;0.95;;;;;;;26.37;63.57;99654.31;8321025;28;20041;-65
2023/07/15 07:57:16;;;;;;;2.60;0.73;;;;;;;26.32;64.00;99652.31;8317017;28;20045;-65
2023/07/15 08:01:16;;;;;;;2.83;0.87;;;;;;;26.19;64.75;99650.00;8317962;28;20049;-65
2023/07/15 08:05:17;;;;;;;2.30;1.20;;;;;;;26.16;64.76;99642.19;8320906;28;20645;-65
2023/07/15 08:09:18;;;;;;;2.90;1.00;;;;;;;25.93;65.81;99631.44;8317275;28;20295;-65
2023/07/15 08:13:19;;;;;;;7.60;1.15;;;;;;;25.69;68.08;99652.22;8319278;28;20052;-65
2023/07/15 08:17:19;;;;;;;1.75;1.17;;;;;;;24.71;75.58;99659.69;8269507;28;20052;-65
2023/07/15 08:21:20;;;;;;;2.47;1.08;;;;;;;23.73;80.68;99711.72;8320059;28;20045;-64
2023/07/15 08:25:20;;;;;;;3.20;1.30;;;;;;;23.36;88.80;99737.13;8302912;28;20382;-65
2023/07/15 08:29:21;;;;;;;4.55;1.30;;;;;;;22.69;96.75;99714.53;8308718;28;20454;-65
2023/07/15 08:33:21;;;;;;;2.63;1.85;;;;;;;21.98;100.00;99711.00;8314938;28;20064;-65
2023/07/15 08:37:21;;;;;;;6.75;1.90;;;;;;;21.70;100.00;99724.47;8323815;28;20049;-65
2023/07/15 08:41:24;;;;;;;3.63;1.90;;;;;;;21.50;100.00;99745.88;8320637;28;20071;-64
2023/07/15 08:45:25;;;;;;;5.35;2.10;;;;;;;21.38;100.00;99769.75;8306582;28;20743;-64
2023/07/15 08:49:28;;;;;;;4.53;1.92;;;;;;;21.53;100.00;99759.16;8323535;28;20030;-64
2023/07/15 08:53:29;;;;;;;4.88;2.28;;;;;;;21.63;100.00;99762.25;8323260;28;20045;-65
2023/07/15 08:57:32;;;;;;;4.30;2.08;;;;;;;21.50;100.00;99762.38;8323450;28;20052;-65
2023/07/15 09:01:36;;;;;;;5.22;1.83;;;;;;;21.50;100.00;99784.38;8322299;28;20045;-64
2023/07/15 09:05:37;;;;;;;4.45;1.80;;;;;;;21.45;100.00;99773.25;8320149;28;20159;-64
2023/07/15 09:09:39;;;;;;;2.95;1.65;;;;;;;21.49;100.00;99787.38;8310520;28;20050;-65
2023/07/15 09:13:40;;;;;;;7.25;1.85;;;;;;;21.67;100.00;99801.97;8318674;28;20061;-64
2023/07/15 09:17:49;;;;;;;4.72;1.65;;;;;;;21.66;100.00;99797.56;8322676;28;20045;-64
2023/07/15 09:21:52;;;;;;;2.92;1.67;;;;;;;21.59;100.00;99766.50;8313752;28;20433;-63
2023/07/15 09:25:54;;;;;;;3.00;1.38;;;;;;;21.54;100.00;99741.63;8322252;28;20048;-64
2023/07/15 09:29:54;;;;;;;6.18;1.85;;;;;;;21.49;100.00;99722.19;8317202;28;20065;-64
2023/07/15 09:34:03;;;;;;;4.10;2.15;;;;;;;21.54;100.00;99719.59;8320046;28;20052;-62
2023/07/15 09:38:09;;;;;;;4.68;2.30;;;;;;;21.68;100.00;99704.59;8322185;28;20160;-62
2023/07/15 09:42:10;;;;;;;6.78;2.50;;;;;;;21.62;100.00;99647.75;8309717;28;20482;-63
2023/07/15 09:46:12;;;;;;;5.25;2.20;;;;;;;21.69;100.00;99717.31;8294604;28;20269;-63
2023/07/15 09:50:13;;;;;;;4.32;2.17;;;;;;;21.71;100.00;99709.63;8318906;28;20048;-63
2023/07/15 09:54:14;;;;;;;3.05;1.98;;;;;;;21.76;100.00;99700.72;8321287;28;20033;-64
2023/07/15 09:58:22;;;;;;;6.55;2.58;;;;;;;21.60;100.00;99685.66;8321757;28;20053;-63
2023/07/15 10:02:46;;;;;;;3.30;2.22;;;;;;;21.69;100.00;99681.53;8319539;28;20083;-64
2023/07/15 10:06:46;;;;;;;3.50;1.50;;;;;;;21.66;100.00;99690.25;8318994;28;20050;-63
2023/07/15 10:10:47;;;;;;;3.80;2.17;;;;;;;21.68;100.00;99690.84;8303681;28;20091;-64
2023/07/15 10:14:48;;;;;;;5.68;1.92;;;;;;;21.85;100.00;99702.94;8320849;28;20464;-63
2023/07/15 10:18:48;;;;;;;10.73;3.42;;;;;;;22.03;100.00;99708.38;8303691;28;20048;-64
2023/07/15 10:22:49;;;;;;;3.78;2.38;;;;;;;22.01;100.00;99715.19;8295081;28;20128;-64
2023/07/15 10:26:53;;;;;;;5.47;3.08;;;;;;;21.96;100.00;99718.63;8312699;28;20033;-64
2023/07/15 10:31:14;;;;;;;4.25;2.20;;;;;;;22.14;100.00;99724.09;8314011;28;20041;-63
2023/07/15 10:35:18;;;;;;;3.92;2.20;;;;;;;22.22;100.00;99706.41;8311424;28;20034;-63
2023/07/15 10:39:19;;;;;;;;;;;;;;;22.28;100.00;99700.78;8330904;28;20044;-64
2023/07/15 10:43:23;;;;;;;3.63;2.45;;;;;;;22.30;100.00;99720.69;8319180;28;19921;-64
2023/07/15 10:47:24;;;;;;;2.50;1.95;;;;;;;22.38;100.00;99700.22;8310150;28;20033;-63
2023/07/15 10:51:24;;;;;;;3.83;2.25;;;;;;;22.38;100.00;99717.56;8318904;28;20061;-64
2023/07/15 10:55:25;;;;;;;4.18;2.40;;;;;;;22.53;100.00;99715.25;8319214;28;20494;-64
2023/07/15 10:59:35;;;;;;;5.38;2.15;;;;;;;22.60;100.00;99724.22;8313751;28;20112;-66
2023/07/15 11:03:39;;;;;;;8.38;2.70;;;;;;;22.60;100.00;99729.75;8315594;28;20124;-66
2023/07/15 11:07:39;;;;;;;;;;;;;;;22.67;100.00;99737.91;8300567;28;20325;-65
2023/07/15 11:11:40;;;;;;;4.20;2.50;;;;;;;22.73;100.00;99743.31;8318655;28;20021;-65
2023/07/15 11:15:43;;;;;;;4.30;2.50;;;;;;;22.87;100.00;99739.25;8317047;28;20049;-66
2023/07/15 11:19:44;;;;;;;7.00;2.37;;;;;;;22.94;100.00;99739.97;8316370;28;20406;-66
2023/07/15 11:23:45;;;;;;;4.47;2.67;;;;;;;23.09;100.00;99748.59;8313513;28;20049;-66
2023/07/15 11:27:45;;;;;;;3.78;2.05;;;;;;;23.42;100.00;99747.19;8318598;28;20045;-65
2023/07/15 11:31:47;;;;;;;2.72;1.90;;;;;;;23.83;100.00;99728.47;8317497;28;20041;-64
2023/07/15 11:35:48;;;;;;;4.00;2.10;;;;;;;24.22;100.00;99726.78;8315911;28;20190;-62
2023/07/15 11:39:48;;;;;;;5.30;1.88;;;;;;;24.19;100.00;99710.69;8315490;28;20045;-62
2023/07/15 11:43:49;;;;;;;3.78;1.75;;;;;;;24.78;100.00;99710.09;8314359;28;20041;-62
2023/07/15 11:47:53;;;;;;;3.75;2.00;;;;;;;24.76;100.00;99720.56;8317121;28;20077;-61
2023/07/15 11:51:56;;;;;;;3.60;2.22;;;;;;;24.52;100.00;99716.28;8308906;28;20144;-62
2023/07/15 11:55:57;;;;;;;2.88;1.70;;;;;;;24.37;100.00;99707.72;8318853;28;20507;-62
2023/07/15 11:59:57;;;;;;;3.25;2.30;;;;;;;24.34;100.00;99727.56;8318912;28;20266;-63
2023/07/15 12:03:58;;;;;;;3.25;2.20;;;;;;;24.20;100.00;99717.91;8316905;28;20057;-62
2023/07/15 12:07:58;;;;;;;2.85;2.10;;;;;;;24.13;100.00;99722.75;8315875;28;20041;-62
2023/07/15 12:11:59;;;;;;;8.13;2.33;;;;;;;24.01;100.00;99703.47;8311380;28;20041;-63
2023/07/15 12:16:00;;;;;;;4.32;2.42;;;;;;;24.06;100.00;99722.06;8312101;28;20264;-63
2023/07/15 12:20:00;;;;;;;3.03;2.20;;;;;;;23.98;100.00;99719.69;8314538;28;20045;-63
2023/07/15 12:24:02;;;;;;;3.13;2.25;;;;;;;23.98;100.00;99711.41;8315994;28;20053;-63
2023/07/15 12:28:02;;;;;;;5.13;2.10;;;;;;;23.97;100.00;99701.44;8316995;28;20199;-63
2023/07/15 12:32:03;;;;;;;6.57;2.47;;;;;;;24.05;100.00;99695.50;8315605;28;20041;-63
2023/07/15 12:36:04;;;;;;;6.43;2.30;;;;;;;24.07;100.00;99690.59;8316397;28;20513;-63
2023/07/15 12:40:06;;;;;;;6.90;2.60;;;;;;;24.22;100.00;99699.16;8315938;28;20042;-63
2023/07/15 12:44:09;;;;;;;4.63;2.55;;;;;;;24.42;100.00;99694.81;8316039;28;20037;-63
2023/07/15 12:48:10;;;;;;;3.80;1.90;;;;;;;24.72;100.00;99678.78;8312175;28;20411;-63
2023/07/15 12:52:10;;;;;;;4.15;2.42;;;;;;;25.08;100.00;99649.72;8339363;28;20071;-63
2023/07/15 12:56:13;;;;;;;4.20;2.28;;;;;;;25.22;93.45;99606.72;8318474;28;20083;-63
2023/07/15 13:00:15;;;;;;;3.38;2.20;;;;;;;25.25;92.08;99584.06;8317851;28;20172;-63
2023/07/15 13:04:16;;;;;;;3.15;2.00;;;;;;;25.34;92.03;99592.81;8308905;28;20037;-63
2023/07/15 13:08:16;;;;;;;2.92;2.22;;;;;;;25.50;91.45;99648.09;8314043;28;20522;-64
2023/07/15 13:12:17;;;;;;;2.90;2.17;;;;;;;25.41;90.72;99660.72;8317737;28;20061;-63
2023/07/15 13:16:17;;;;;;;2.63;1.93;;;;;;;25.52;88.75;99664.47;8308391;28;20092;-63
2023/07/15 13:20:18;;;;;;;2.42;1.95;;;;;;;25.57;87.56;99681.97;8311681;28;20289;-63
2023/07/15 13:24:18;;;;;;;2.47;2.03;;;;;;;25.59;87.46;99674.25;8323881;28;20041;-64
2023/07/15 13:28:19;;;;;;;3.30;2.08;;;;;;;25.61;86.89;99676.75;8322706;28;20045;-63
2023/07/15 13:32:19;;;;;;;3.63;2.20;;;;;;;25.47;88.25;99687.38;8323343;28;20044;-64
2023/07/15 13:36:19;;;;;;;2.88;1.98;;;;;;;25.30;90.00;99682.94;8323803;28;20038;-64
2023/07/15 13:40:20;;;;;;;2.50;1.92;;;;;;;25.32;88.66;99687.19;8323596;28;20072;-63
2023/07/15 13:44:21;;;;;;;3.90;1.98;;;;;;;25.27;88.30;99666.84;8322576;28;20037;-63
2023/07/15 13:48:21;;;;;;;3.38;1.83;;;;;;;25.09;90.07;99676.28;8323331;28;20045;-63
2023/07/15 13:52:22;;;;;;;2.58;1.80;;;;;;;25.05;90.77;99677.91;8322368;28;20037;-63
2023/07/15 13:56:23;;;;;;;2.33;1.50;;;;;;;25.35;90.66;99689.44;8322879;28;20037;-64
2023/07/15 14:00:23;;;;;;;3.03;1.65;;;;;;;26.27;87.60;99671.69;8321840;28;20045;-64
2023/07/15 14:04:26;;;;;;;1.50;1.20;;;;;;;26.69;86.13;99664.31;8318443;28;20032;-64
2023/07/15 14:08:27;;;;;;;2.80;1.45;;;;;;;26.97;80.01;99665.06;8313074;28;20038;-64
2023/07/15 14:12:27;;;;;;;2.28;0.90;;;;;;;27.08;76.63;99678.72;8321799;28;20458;-63
2023/07/15 14:16:27;;;;;;;1.43;1.13;;;;;;;26.98;73.36;99700.06;8320816;28;20491;-64
2023/07/15 14:20:28;;;;;;;1.83;1.30;;;;;;;27.08;72.37;99683.47;8322032;28;20288;-64
2023/07/15 14:24:29;;;;;;;1.80;1.25;;;;;;;27.05;72.17;99667.34;8321606;28;20057;-64
2023/07/15 14:28:29;;;;;;;1.88;1.40;;;;;;;27.04;72.28;99651.81;8321806;28;20052;-64
2023/07/15 14:32:29;;;;;;;1.95;1.02;;;;;;;26.94;74.91;99657.28;8320968;28;20170;-63
2023/07/15 14:36:30;;;;;;;1.58;1.13;;;;;;;26.94;73.74;99654.50;8321731;28;20049;-64
2023/07/15 14:40:31;;;;;;;3.15;1.23;;;;;;;26.94;72.81;99660.91;8321159;28;20049;-64
2023/07/15 14:44:31;;;;;;;2.03;1.00;;;;;;;27.16;72.58;99666.28;8320530;28;20564;-64
2023/07/15 14:48:32;;;;;;;1.65;1.17;;;;;;;27.28;72.19;99670.56;8317163;28;20075;-61
2023/07/15 14:52:32;;;;;;;6.00;1.23;;;;;;;27.34;71.78;99663.09;8319933;28;20184;-67
2023/07/15 14:56:33;;;;;;;8.75;1.95;;;;;;;27.53;72.20;99654.03;8320969;28;20048;-65
2023/07/15 15:00:33;;;;;;;1.63;0.90;;;;;;;27.76;71.56;99644.38;8320664;28;20041;-64
2023/07/15 15:04:33;;;;;;;4.35;1.10;;;;;;;27.55;71.62;99646.25;8319037;28;20046;-64
2023/07/15 15:08:34;;;;;;;1.48;0.70;;;;;;;27.57;70.19;99626.53;8320062;28;20073;-65
2023/07/15 15:12:34;;;;;;;3.08;0.80;;;;;;;27.66;69.49;99611.03;8319587;28;20048;-64
2023/07/15 15:16:35;;;;;;;5.07;1.20;;;;;;;27.95;68.57;99629.75;8319907;28;20492;-65
2023/07/15 15:20:35;;;;;;;2.20;1.02;;;;;;;28.15;66.93;99617.81;8320136;28;20585;-64
2023/07/15 15:24:36;;;;;;;2.95;1.10;;;;;;;28.18;66.04;99606.16;8318547;28;20150;-65
2023/07/15 15:28:41;;;;;;;2.58;1.17;;;;;;;28.19;64.38;99613.38;8319427;28;20045;-64
2023/07/15 15:32:42;;;;;;;5.90;1.67;;;;;;;28.08;64.98;99614.44;8315284;28;20037;-64
2023/07/15 15:36:42;;;;;;;4.28;1.02;;;;;;;28.04;64.09;99611.41;8318522;28;20048;-65
2023/07/15 15:40:43;;;;;;;3.85;1.20;;;;;;;28.04;64.08;99611.41;8318933;28;20081;-64
2023/07/15 15:44:45;;;;;;;3.67;1.40;;;;;;;28.02;65.87;99605.28;8318715;28;20056;-64
2023/07/15 15:48:45;;;;;;;3.25;0.95;;;;;;;28.28;65.11;99607.00;8318652;28;20519;-64
2023/07/15 15:52:48;;;;;;;1.58;1.27;;;;;;;28.38;63.91;99584.72;8318774;28;20037;-64
2023/07/15 15:56:49;;;;;;;1.52;1.00;;;;;;;28.44;63.06;99596.69;8319200;28;20041;-64
2023/07/15 16:00:49;;;;;;;1.20;0.93;;;;;;;28.26;64.71;99581.41;8309665;28;20052;-64
2023/07/15 16:04:50;;;;;;;3.30;1.00;;;;;;;28.15;63.87;99601.13;8317556;28;20041;-64
2023/07/15 16:08:51;;;;;;;2.45;0.80;;;;;;;28.25;62.34;99601.13;8301590;28;20346;-64
2023/07/15 16:12:51;;;;;;;2.80;0.93;;;;;;;28.29;62.51;99602.25;8318218;28;20156;-64
2023/07/15 16:16:51;;;;;;;3.45;1.08;;;;;;;28.18;62.62;99606.16;8318363;28;20045;-64
2023/07/15 16:20:52;;;;;;;1.55;0.90;;;;;;;28.03;63.43;99603.34;8316746;28;20049;-64
2023/07/15 16:24:52;;;;;;;1.98;1.02;;;;;;;27.91;64.40;99613.88;8318361;28;20045;-64
2023/07/15 16:28:53;;;;;;;2.90;1.30;;;;;;;27.88;63.57;99614.44;8325602;28;20529;-64
2023/07/15 16:32:53;;;;;;;3.08;1.00;;;;;;;27.77;64.29;99626.59;8318353;28;20349;-64
2023/07/15 16:36:54;;;;;;;1.92;1.10;;;;;;;27.60;64.24;99639.88;8316781;28;20404;-64
2023/07/15 16:40:54;;;;;;;1.67;1.00;;;;;;;27.43;64.96;99642.03;8318040;28;20041;-64
2023/07/15 16:44:54;;;;;;;3.28;1.25;;;;;;;27.33;64.36;99642.00;8318457;28;20045;-64
2023/07/15 16:48:55;;;;;;;2.13;1.38;;;;;;;27.28;65.08;99639.19;8318351;28;20280;-64
2023/07/15 16:52:55;;;;;;;2.10;1.43;;;;;;;27.22;66.18;99643.84;8316581;28;20491;-64
2023/07/15 16:56:56;;;;;;;1.02;0.88;;;;;;;27.16;66.25;99635.75;8322888;28;20272;-65
2023/07/15 17:00:58;;;;;;;1.92;1.38;;;;;;;27.13;67.44;99637.13;8320018;28;20542;-64
2023/07/15 17:04:59;;;;;;;2.17;1.30;;;;;;;27.11;68.11;99633.78;8324543;28;20112;-64
2023/07/15 17:08:59;;;;;;;1.47;0.80;;;;;;;27.14;68.46;99627.69;8339921;28;20514;-65
2023/07/15 17:13:00;;;;;;;3.03;1.23;;;;;;;27.12;67.95;99616.06;8323376;28;20287;-64
2023/07/15 17:17:00;;;;;;;2.80;1.25;;;;;;;27.08;68.15;99611.31;8324038;28;20124;-64
2023/07/15 17:21:01;;;;;;;2.35;1.20;;;;;;;26.90;69.18;99631.19;8323972;28;20068;-64
2023/07/15 17:25:01;;;;;;;2.85;1.50;;;;;;;26.81;68.65;99616.97;8323954;28;20257;-64
2023/07/15 17:29:02;;;;;;;3.05;1.50;;;;;;;26.65;70.09;99627.13;8322947;28;20428;-64
2023/07/15 17:33:02;;;;;;;4.55;1.08;;;;;;;26.57;70.32;99638.69;8320920;28;20072;-62
2023/07/15 17:37:03;;;;;;;1.30;0.93;;;;;;;26.51;68.99;99638.91;8323088;28;20037;-62
2023/07/15 17:41:03;;;;;;;2.70;1.23;;;;;;;26.47;69.00;99646.09;8323072;28;20046;-62
2023/07/15 17:45:04;;;;;;;3.70;1.67;;;;;;;26.24;70.64;99632.56;8322915;28;20195;-62
2023/07/15 17:49:05;;;;;;;2.90;1.48;;;;;;;26.14;70.41;99632.50;8323666;28;20049;-62
2023/07/15 17:53:05;;;;;;;2.70;1.45;;;;;;;26.03;71.39;99644.56;8322372;28;20514;-62
2023/07/15 17:57:06;;;;;;;3.47;1.73;;;;;;;25.96;71.99;99646.69;8322689;28;20080;-63
2023/07/15 18:01:06;;;;;;;3.85;1.58;;;;;;;25.93;71.69;99648.03;8304282;28;20415;-63
2023/07/15 18:05:07;;;;;;;1.90;1.20;;;;;;;25.88;71.93;99672.91;8321044;28;20045;-63
2023/07/15 18:09:09;;;;;;;2.35;1.35;;;;;;;25.86;71.72;99680.63;8322148;28;20029;-63
2023/07/15 18:13:09;;;;;;;2.30;1.30;;;;;;;25.74;71.91;99696.56;8321749;28;20124;-64
2023/07/15 18:17:10;;;;;;;3.72;1.65;;;;;;;25.72;72.35;99711.78;8315758;28;20045;-64
2023/07/15 18:21:10;;;;;;;4.18;1.48;;;;;;;25.60;73.20;99750.66;8321348;28;20041;-63
2023/07/15 18:25:11;;;;;;;4.32;1.65;;;;;;;25.61;73.42;99760.63;8321222;28;20041;-64
2023/07/15 18:29:11;;;;;;;4.82;1.63;;;;;;;25.60;72.77;99819.88;8321990;28;20045;-64
2023/07/15 18:33:12;;;;;;;3.97;0.80;;;;;;;23.39;72.07;99864.38;8321447;28;20049;-63
2023/07/15 18:37:12;;;;;;;3.13;0.77;;;;;;;21.68;82.96;99868.88;8321551;28;20642;-62
2023/07/15 18:41:13;;;;;;;5.22;1.00;;;;;;;20.93;89.18;99842.47;8320682;28;20041;-62
2023/07/15 18:45:13;;;;;;;4.97;1.60;;;;;;;20.96;89.59;99809.06;8321136;28;20044;-63
2023/07/15 18:49:15;;;;;;;6.43;0.88;;;;;;;21.11;89.25;99798.56;8316930;28;20080;-63
2023/07/15 18:53:15;;;;;;;6.40;1.00;;;;;;;21.38;92.11;99772.50;8308892;28;20079;-63